createdAt,value
2022-10-25T00:01:19.766Z,26.05
2022-10-25T00:06:25.270Z,8.63
2022-10-25T00:11:31.537Z,9.15
2022-10-25T00:16:37.770Z,12.80
2022-10-25T00:21:43.046Z,9.07
2022-10-25T00:26:46.739Z,9.82
2022-10-25T00:31:50.443Z,9.43
2022-10-25T00:36:55.412Z,12.10
2022-10-25T00:41:59.163Z,14.23
2022-10-25T00:47:03.951Z,10.50
2022-10-25T00:52:09.727Z,12.27
2022-10-25T00:57:17.386Z,9.57
2022-10-25T01:02:23.480Z,15.27
2022-10-25T01:07:28.698Z,9.95
2022-10-25T01:12:32.337Z,10.18
2022-10-25T01:17:47.228Z,12.68
2022-10-25T01:22:57.005Z,13.77
2022-10-25T01:28:14.695Z,9.73
2022-10-25T01:33:24.508Z,11.23
2022-10-25T01:38:39.801Z,11.95
2022-10-25T01:43:55.102Z,11.93
2022-10-25T01:49:05.094Z,10.52
2022-10-25T01:54:20.455Z,13.00
2022-10-25T01:59:35.152Z,11.15
2022-10-25T02:04:51.669Z,14.85
2022-10-25T02:10:03.959Z,13.77
2022-10-25T02:15:12.987Z,14.20
2022-10-25T02:20:21.647Z,13.23
2022-10-25T02:25:25.324Z,14.60
2022-10-25T02:30:30.237Z,13.88
2022-10-25T02:35:35.342Z,14.30
2022-10-25T02:40:39.133Z,15.17
2022-10-25T02:45:42.786Z,13.68
2022-10-25T02:50:47.863Z,14.38
2022-10-25T02:56:01.022Z,15.30
2022-10-25T03:01:05.403Z,16.40
2022-10-25T03:06:13.139Z,15.95
2022-10-25T03:11:18.578Z,14.77
2022-10-25T03:16:22.292Z,14.73
2022-10-25T03:21:27.523Z,13.80
2022-10-25T03:26:31.205Z,13.60
2022-10-25T03:31:34.883Z,14.00
2022-10-25T03:36:39.913Z,14.07
2022-10-25T03:41:45.330Z,13.70
2022-10-25T03:46:52.396Z,12.13
2022-10-25T03:52:02.799Z,12.05
2022-10-25T03:57:10.149Z,12.80
2022-10-25T04:02:17.648Z,11.10
2022-10-25T04:07:25.948Z,10.00
2022-10-25T04:12:33.086Z,9.05
2022-10-25T04:17:40.005Z,8.13
2022-10-25T04:22:47.666Z,7.35
2022-10-25T04:27:54.967Z,8.20
2022-10-25T04:33:01.549Z,7.90
2022-10-25T04:38:10.166Z,9.80
2022-10-25T04:43:16.820Z,8.02
2022-10-25T04:48:24.460Z,7.47
2022-10-25T04:53:32.943Z,7.25
2022-10-25T04:58:40.281Z,7.72
2022-10-25T05:03:47.401Z,7.43
2022-10-25T05:08:55.879Z,6.70
2022-10-25T05:14:02.756Z,6.55
2022-10-25T05:19:10.284Z,7.05
2022-10-25T05:24:18.607Z,7.28
2022-10-25T05:29:25.722Z,5.60
2022-10-25T05:34:32.935Z,6.70
2022-10-25T05:39:41.262Z,5.82
2022-10-25T05:44:47.870Z,5.00
2022-10-25T05:49:52.582Z,6.18
2022-10-25T05:54:57.641Z,5.30
2022-10-25T06:00:02.327Z,6.20
2022-10-25T06:05:11.477Z,5.38
2022-10-25T06:10:20.025Z,4.47
2022-10-25T06:15:27.406Z,5.78
2022-10-25T06:20:34.900Z,6.85
2022-10-25T06:25:43.663Z,7.65
2022-10-25T06:30:50.964Z,6.70
2022-10-25T06:35:59.066Z,6.97
2022-10-25T06:41:09.915Z,6.10
2022-10-25T06:46:23.047Z,6.15
2022-10-25T06:51:32.719Z,6.85
2022-10-25T06:56:41.480Z,7.32
2022-10-25T07:01:48.765Z,8.38
2022-10-25T07:06:56.072Z,9.10
2022-10-25T07:12:06.631Z,10.23
2022-10-25T07:17:17.631Z,8.27
2022-10-25T07:22:24.378Z,8.02
2022-10-25T07:27:34.520Z,8.02
2022-10-25T07:32:42.577Z,7.70
2022-10-25T07:37:50.070Z,8.13
2022-10-25T07:42:57.830Z,6.60
2022-10-25T07:48:02.729Z,6.40
2022-10-25T07:53:06.788Z,4.90
2022-10-25T07:58:12.877Z,3.70
2022-10-25T08:03:18.506Z,3.33
2022-10-25T08:08:23.369Z,3.05
2022-10-25T08:13:28.875Z,2.50
2022-10-25T08:18:33.149Z,3.05
2022-10-25T08:23:37.169Z,4.63
2022-10-25T08:28:44.700Z,4.22
2022-10-25T08:33:51.952Z,5.80
2022-10-25T08:38:58.788Z,6.07
2022-10-25T08:44:26.547Z,6.70
2022-10-25T08:49:43.142Z,7.80
2022-10-25T08:54:49.557Z,8.80
2022-10-25T08:59:57.569Z,9.48
2022-10-25T09:05:03.467Z,9.40
2022-10-25T09:10:24.043Z,10.10
2022-10-25T09:15:44.905Z,11.68
2022-10-25T09:20:53.141Z,14.20
2022-10-25T09:26:06.622Z,13.23
2022-10-25T09:31:18.612Z,12.48
2022-10-25T09:36:27.550Z,12.10
2022-10-25T09:41:40.465Z,12.93
2022-10-25T09:46:53.224Z,11.50
2022-10-25T09:52:08.307Z,10.77
2022-10-25T09:57:13.909Z,10.10
2022-10-25T10:02:24.740Z,10.73
2022-10-25T10:07:34.745Z,8.95
2022-10-25T10:12:45.985Z,9.00
2022-10-25T10:18:21.507Z,8.90
2022-10-25T10:23:26.888Z,9.90
2022-10-25T10:28:33.987Z,8.50
2022-10-25T10:33:43.651Z,10.27
2022-10-25T10:38:50.795Z,9.45
2022-10-25T10:44:13.345Z,7.88
2022-10-25T10:49:20.738Z,7.97
2022-10-25T10:54:28.141Z,7.97
2022-10-25T10:59:42.190Z,7.90
2022-10-25T11:04:54.109Z,6.80
2022-10-25T11:10:25.854Z,7.90
2022-10-25T11:15:34.002Z,6.55
2022-10-25T11:20:51.422Z,6.22
2022-10-25T11:26:07.127Z,6.68
2022-10-25T11:31:23.132Z,6.68
2022-10-25T11:37:07.941Z,6.88
2022-10-25T11:42:34.453Z,5.32
2022-10-25T11:47:46.550Z,6.10
2022-10-25T11:53:05.819Z,5.70
2022-10-25T11:58:25.506Z,4.72
2022-10-25T12:03:55.881Z,4.40
2022-10-25T12:09:08.482Z,4.90
2022-10-25T12:14:14.746Z,4.40
2022-10-25T12:19:24.292Z,5.15
2022-10-25T12:24:38.041Z,4.90
2022-10-25T12:29:46.979Z,5.35
2022-10-25T12:34:53.756Z,4.50
2022-10-25T12:39:59.161Z,4.75
2022-10-25T12:45:43.943Z,5.25
2022-10-25T12:51:08.568Z,4.82
2022-10-25T12:56:25.250Z,5.78
2022-10-25T13:01:53.589Z,6.53
2022-10-25T13:06:59.314Z,7.75
2022-10-25T13:17:45.301Z,6.68
2022-10-25T13:22:49.801Z,4.72
2022-10-25T13:28:34.051Z,8.32
2022-10-25T13:33:39.813Z,11.90
2022-10-25T13:38:43.835Z,15.98
2022-10-25T13:43:59.562Z,14.05
2022-10-25T13:49:21.713Z,4.47
2022-10-25T13:54:31.485Z,4.95
2022-10-25T14:00:01.355Z,4.65
2022-10-25T14:05:05.612Z,4.68
2022-10-25T14:10:17.279Z,5.30
2022-10-25T14:15:36.723Z,5.78
2022-10-25T14:20:41.140Z,6.18
2022-10-25T14:25:52.173Z,5.65
2022-10-25T14:30:59.369Z,7.45
2022-10-25T14:36:11.942Z,10.52
2022-10-25T14:41:15.942Z,14.00
2022-10-25T14:46:22.061Z,15.27
2022-10-25T14:51:28.816Z,4.75
2022-10-25T14:56:36.560Z,5.13
2022-10-25T15:01:42.681Z,8.70
2022-10-25T15:06:49.733Z,10.95
2022-10-25T15:12:08.454Z,5.03
2022-10-25T15:17:28.981Z,5.75
2022-10-25T15:22:35.614Z,9.23
2022-10-25T15:27:41.818Z,6.60
2022-10-25T15:32:47.386Z,7.15
2022-10-25T15:37:51.397Z,6.00
2022-10-25T15:42:55.305Z,6.28
2022-10-25T15:48:00.765Z,5.68
2022-10-25T15:58:09.907Z,7.25
2022-10-25T16:03:20.929Z,9.85
2022-10-25T16:08:24.846Z,10.85
2022-10-25T16:13:33.716Z,9.13
2022-10-25T16:18:38.748Z,10.10
2022-10-25T16:23:42.584Z,11.18
2022-10-25T16:28:46.719Z,11.13
2022-10-25T16:33:51.854Z,11.93
2022-10-25T16:38:55.535Z,14.07
2022-10-25T16:43:59.886Z,15.32
2022-10-25T16:49:05.760Z,11.45
2022-10-25T16:59:14.543Z,16.00
2022-10-25T17:04:19.651Z,15.10
2022-10-25T17:09:23.594Z,12.68
2022-10-25T17:14:27.708Z,11.50
2022-10-25T17:19:32.934Z,13.05
2022-10-25T17:24:37.696Z,22.52
2022-10-25T17:29:41.705Z,20.83
2022-10-25T17:34:46.941Z,17.42
2022-10-25T17:39:51.055Z,22.65
2022-10-25T17:44:55.124Z,11.88
2022-10-25T17:50:01.698Z,12.25
2022-10-25T17:55:06.917Z,15.45
2022-10-25T18:00:14.126Z,20.57
2022-10-25T18:05:22.023Z,28.75
2022-10-25T18:10:26.133Z,25.50
2022-10-25T18:15:29.959Z,38.17
2022-10-25T18:20:38.244Z,18.20
2022-10-25T18:25:50.934Z,13.32
2022-10-25T18:31:00.113Z,16.83
2022-10-25T18:36:07.738Z,28.52
2022-10-25T18:41:14.767Z,24.83
2022-10-25T18:46:19.077Z,17.92
2022-10-25T18:51:26.668Z,14.32
2022-10-25T18:56:31.762Z,14.05
2022-10-25T19:01:35.920Z,10.73
2022-10-25T19:06:41.075Z,10.85
2022-10-25T19:11:45.070Z,10.48
2022-10-25T19:16:48.796Z,13.82
2022-10-25T19:21:53.958Z,17.52
2022-10-25T19:26:57.964Z,9.00
2022-10-25T19:32:02.013Z,8.88
2022-10-25T19:37:08.958Z,8.55
2022-10-25T19:42:13.063Z,7.95
2022-10-25T19:47:16.779Z,7.72
2022-10-25T19:52:21.926Z,8.38
2022-10-25T19:57:25.807Z,7.30
2022-10-25T20:02:30.027Z,7.03
2022-10-25T20:07:35.975Z,7.10
2022-10-25T20:12:39.815Z,6.43
2022-10-25T20:17:43.852Z,6.72
2022-10-25T20:22:48.991Z,8.77
2022-10-25T20:27:52.793Z,7.73
2022-10-25T20:32:56.811Z,10.48
2022-10-25T20:38:01.902Z,8.57
2022-10-25T20:43:06.275Z,7.73
2022-10-25T20:48:11.288Z,8.10
2022-10-25T20:53:17.160Z,8.80
2022-10-25T20:58:22.669Z,7.53
2022-10-25T21:03:28.460Z,7.85
2022-10-25T21:08:37.008Z,8.85
2022-10-25T21:13:40.937Z,7.72
2022-10-25T21:18:45.147Z,10.25
2022-10-25T21:23:56.556Z,8.25
2022-10-25T21:29:00.461Z,13.60
2022-10-25T21:34:04.722Z,6.70
2022-10-25T21:39:10.116Z,7.88
2022-10-25T21:44:14.001Z,8.32
2022-10-25T21:49:17.685Z,9.48
2022-10-25T21:54:22.858Z,13.98
2022-10-25T21:59:26.508Z,7.73
2022-10-25T22:04:30.462Z,7.28
2022-10-25T22:09:35.829Z,7.80
2022-10-25T22:14:39.801Z,7.68
2022-10-25T22:19:43.913Z,7.35
2022-10-25T22:24:49.141Z,8.65
2022-10-25T22:29:53.183Z,8.00
2022-10-25T22:34:57.604Z,7.57
2022-10-25T22:40:03.244Z,7.43
2022-10-25T22:45:08.370Z,8.20
2022-10-25T22:50:12.231Z,8.18
2022-10-25T22:55:17.785Z,8.32
2022-10-25T23:05:25.943Z,7.07
2022-10-25T23:10:31.211Z,7.60
2022-10-25T23:15:35.181Z,8.07
2022-10-25T23:20:39.384Z,7.32
2022-10-25T23:25:45.008Z,7.45
2022-10-25T23:35:52.696Z,7.22
2022-10-25T23:40:58.453Z,7.68
2022-10-25T23:46:02.770Z,10.10
2022-10-25T23:51:08.331Z,28.63
2022-10-25T23:56:14.760Z,38.47
